sensor_id;sensor_type;location;lat;lon;timestamp;temperature;humidity
22629;DHT22;11481;53.694;9.910;2023-07-09T00:01:14;24.30;99.90
22629;DHT22;11481;53.694;9.910;2023-07-09T00:03:44;24.10;99.90
22629;DHT22;11481;53.694;9.910;2023-07-09T00:06:12;24.30;99.90
22629;DHT22;11481;53.694;9.910;2023-07-09T00:08:43;24.30;99.90
22629;DHT22;11481;53.694;9.910;2023-07-09T00:11:10;24.10;99.90
22629;DHT22;11481;53.694;9.910;2023-07-09T00:13:38;24.00;99.90
22629;DHT22;11481;53.694;9.910;2023-07-09T00:16:12;23.80;99.90
22629;DHT22;11481;53.694;9.910;2023-07-09T00:18:39;24.50;99.90
22629;DHT22;11481;53.694;9.910;2023-07-09T00:21:06;24.10;99.90
22629;DHT22;11481;53.694;9.910;2023-07-09T00:23:32;23.80;99.90
22629;DHT22;11481;53.694;9.910;2023-07-09T00:25:59;24.00;99.90
22629;DHT22;11481;53.694;9.910;2023-07-09T00:28:29;24.00;99.90
22629;DHT22;11481;53.694;9.910;2023-07-09T00:30:57;24.00;99.90
22629;DHT22;11481;53.694;9.910;2023-07-09T00:33:24;24.10;99.90
22629;DHT22;11481;53.694;9.910;2023-07-09T00:35:58;24.10;99.90
22629;DHT22;11481;53.694;9.910;2023-07-09T00:38:27;24.10;99.90
22629;DHT22;11481;53.694;9.910;2023-07-09T00:41:04;24.00;99.90
22629;DHT22;11481;53.694;9.910;2023-07-09T00:43:36;24.00;99.90
22629;DHT22;11481;53.694;9.910;2023-07-09T00:48:50;24.10;99.90
22629;DHT22;11481;53.694;9.910;2023-07-09T00:51:20;24.10;99.90
22629;DHT22;11481;53.694;9.910;2023-07-09T00:53:55;24.00;99.90
22629;DHT22;11481;53.694;9.910;2023-07-09T00:56:29;23.90;99.90
22629;DHT22;11481;53.694;9.910;2023-07-09T00:59:01;23.80;99.90
22629;DHT22;11481;53.694;9.910;2023-07-09T01:01:32;23.80;99.90
22629;DHT22;11481;53.694;9.910;2023-07-09T01:04:00;24.30;99.90
22629;DHT22;11481;53.694;9.910;2023-07-09T01:06:59;23.90;99.90
22629;DHT22;11481;53.694;9.910;2023-07-09T01:09:25;23.60;99.90
22629;DHT22;11481;53.694;9.910;2023-07-09T01:11:52;23.60;99.90
22629;DHT22;11481;53.694;9.910;2023-07-09T01:14:24;23.50;99.90
22629;DHT22;11481;53.694;9.910;2023-07-09T01:16:57;23.40;99.90
22629;DHT22;11481;53.694;9.910;2023-07-09T01:19:26;23.40;99.90
22629;DHT22;11481;53.694;9.910;2023-07-09T01:21:56;23.40;99.90
22629;DHT22;11481;53.694;9.910;2023-07-09T01:24:47;23.30;99.90
22629;DHT22;11481;53.694;9.910;2023-07-09T01:27:14;23.20;99.90
22629;DHT22;11481;53.694;9.910;2023-07-09T01:29:42;23.10;99.90
22629;DHT22;11481;53.694;9.910;2023-07-09T01:32:14;23.10;99.90
22629;DHT22;11481;53.694;9.910;2023-07-09T01:34:41;22.90;99.90
22629;DHT22;11481;53.694;9.910;2023-07-09T01:37:08;22.80;99.90
22629;DHT22;11481;53.694;9.910;2023-07-09T01:39:34;22.90;99.90
22629;DHT22;11481;53.694;9.910;2023-07-09T01:42:02;22.70;99.90
22629;DHT22;11481;53.694;9.910;2023-07-09T01:44:29;22.70;99.90
22629;DHT22;11481;53.694;9.910;2023-07-09T01:46:56;22.60;99.90
22629;DHT22;11481;53.694;9.910;2023-07-09T01:49:23;22.60;99.90
22629;DHT22;11481;53.694;9.910;2023-07-09T01:51:52;22.50;99.90
22629;DHT22;11481;53.694;9.910;2023-07-09T01:54:21;22.40;99.90
22629;DHT22;11481;53.694;9.910;2023-07-09T01:56:48;22.50;99.90
22629;DHT22;11481;53.694;9.910;2023-07-09T01:59:15;22.30;99.90
22629;DHT22;11481;53.694;9.910;2023-07-09T02:01:41;22.40;99.90
22629;DHT22;11481;53.694;9.910;2023-07-09T02:04:09;22.30;99.90
22629;DHT22;11481;53.694;9.910;2023-07-09T02:06:36;22.10;99.90
22629;DHT22;11481;53.694;9.910;2023-07-09T02:09:03;22.10;99.90
22629;DHT22;11481;53.694;9.910;2023-07-09T02:11:29;22.10;99.90
22629;DHT22;11481;53.694;9.910;2023-07-09T02:13:56;22.40;99.90
22629;DHT22;11481;53.694;9.910;2023-07-09T02:16:23;22.10;99.90
22629;DHT22;11481;53.694;9.910;2023-07-09T02:18:50;22.30;99.90
22629;DHT22;11481;53.694;9.910;2023-07-09T02:21:17;22.20;99.90
22629;DHT22;11481;53.694;9.910;2023-07-09T02:23:44;22.90;99.90
22629;DHT22;11481;53.694;9.910;2023-07-09T02:26:10;22.10;99.90
22629;DHT22;11481;53.694;9.910;2023-07-09T02:28:37;22.10;99.90
22629;DHT22;11481;53.694;9.910;2023-07-09T02:31:04;22.10;99.90
22629;DHT22;11481;53.694;9.910;2023-07-09T02:33:31;22.00;99.90
22629;DHT22;11481;53.694;9.910;2023-07-09T02:35:59;22.10;99.90
22629;DHT22;11481;53.694;9.910;2023-07-09T02:38:27;22.00;99.90
22629;DHT22;11481;53.694;9.910;2023-07-09T02:40:53;21.90;99.90
22629;DHT22;11481;53.694;9.910;2023-07-09T02:43:20;22.00;99.90
22629;DHT22;11481;53.694;9.910;2023-07-09T02:45:47;21.90;99.90
22629;DHT22;11481;53.694;9.910;2023-07-09T02:48:14;21.90;99.90
22629;DHT22;11481;53.694;9.910;2023-07-09T02:50:41;21.80;99.90
22629;DHT22;11481;53.694;9.910;2023-07-09T02:53:08;21.70;99.90
22629;DHT22;11481;53.694;9.910;2023-07-09T02:55:34;21.80;99.90
22629;DHT22;11481;53.694;9.910;2023-07-09T02:58:01;21.80;99.90
22629;DHT22;11481;53.694;9.910;2023-07-09T03:00:28;21.80;99.90
22629;DHT22;11481;53.694;9.910;2023-07-09T03:02:55;21.80;99.90
22629;DHT22;11481;53.694;9.910;2023-07-09T03:05:22;21.80;99.90
22629;DHT22;11481;53.694;9.910;2023-07-09T03:07:49;21.80;99.90
22629;DHT22;11481;53.694;9.910;2023-07-09T03:10:16;21.70;99.90
22629;DHT22;11481;53.694;9.910;2023-07-09T03:12:42;21.80;99.90
22629;DHT22;11481;53.694;9.910;2023-07-09T03:15:09;21.80;99.90
22629;DHT22;11481;53.694;9.910;2023-07-09T03:17:36;21.70;99.90
22629;DHT22;11481;53.694;9.910;2023-07-09T03:20:04;21.70;99.90
22629;DHT22;11481;53.694;9.910;2023-07-09T03:22:32;21.70;99.90
22629;DHT22;11481;53.694;9.910;2023-07-09T03:24:58;21.60;99.90
22629;DHT22;11481;53.694;9.910;2023-07-09T03:27:25;21.60;99.90
22629;DHT22;11481;53.694;9.910;2023-07-09T03:29:52;21.50;99.90
22629;DHT22;11481;53.694;9.910;2023-07-09T03:32:19;21.50;99.90
22629;DHT22;11481;53.694;9.910;2023-07-09T03:34:46;21.40;99.90
22629;DHT22;11481;53.694;9.910;2023-07-09T03:37:13;21.40;99.90
22629;DHT22;11481;53.694;9.910;2023-07-09T03:39:40;21.30;99.90
22629;DHT22;11481;53.694;9.910;2023-07-09T03:42:07;21.20;99.90
22629;DHT22;11481;53.694;9.910;2023-07-09T03:44:36;21.20;99.90
22629;DHT22;11481;53.694;9.910;2023-07-09T03:47:03;21.30;99.90
22629;DHT22;11481;53.694;9.910;2023-07-09T03:49:30;21.30;99.90
22629;DHT22;11481;53.694;9.910;2023-07-09T03:51:56;21.30;99.90
22629;DHT22;11481;53.694;9.910;2023-07-09T03:54:24;21.30;99.90
22629;DHT22;11481;53.694;9.910;2023-07-09T03:56:53;21.20;99.90
22629;DHT22;11481;53.694;9.910;2023-07-09T03:59:20;21.20;99.90
22629;DHT22;11481;53.694;9.910;2023-07-09T04:01:46;21.10;99.90
22629;DHT22;11481;53.694;9.910;2023-07-09T04:04:13;21.10;99.90
22629;DHT22;11481;53.694;9.910;2023-07-09T04:06:40;21.10;99.90
22629;DHT22;11481;53.694;9.910;2023-07-09T04:09:08;21.00;99.90
22629;DHT22;11481;53.694;9.910;2023-07-09T04:11:35;21.00;99.90
22629;DHT22;11481;53.694;9.910;2023-07-09T04:14:01;21.00;99.90
22629;DHT22;11481;53.694;9.910;2023-07-09T04:16:29;21.10;99.90
22629;DHT22;11481;53.694;9.910;2023-07-09T04:18:56;21.10;99.90
22629;DHT22;11481;53.694;9.910;2023-07-09T04:21:22;21.10;99.90
22629;DHT22;11481;53.694;9.910;2023-07-09T04:23:49;21.10;99.90
22629;DHT22;11481;53.694;9.910;2023-07-09T04:26:16;21.20;99.90
22629;DHT22;11481;53.694;9.910;2023-07-09T04:28:43;21.10;99.90
22629;DHT22;11481;53.694;9.910;2023-07-09T04:31:09;21.10;99.90
22629;DHT22;11481;53.694;9.910;2023-07-09T04:33:36;21.10;99.90
22629;DHT22;11481;53.694;9.910;2023-07-09T04:36:03;21.10;99.90
22629;DHT22;11481;53.694;9.910;2023-07-09T04:38:33;21.20;99.90
22629;DHT22;11481;53.694;9.910;2023-07-09T04:41:00;21.20;99.90
22629;DHT22;11481;53.694;9.910;2023-07-09T04:43:27;21.20;99.90
22629;DHT22;11481;53.694;9.910;2023-07-09T04:45:53;21.20;99.90
22629;DHT22;11481;53.694;9.910;2023-07-09T04:48:21;21.20;99.90
22629;DHT22;11481;53.694;9.910;2023-07-09T04:50:48;21.20;99.90
22629;DHT22;11481;53.694;9.910;2023-07-09T04:53:16;21.20;99.90
22629;DHT22;11481;53.694;9.910;2023-07-09T04:55:44;21.20;99.90
22629;DHT22;11481;53.694;9.910;2023-07-09T04:58:11;21.20;99.90
22629;DHT22;11481;53.694;9.910;2023-07-09T05:00:37;21.20;99.90
22629;DHT22;11481;53.694;9.910;2023-07-09T05:03:04;21.50;99.90
22629;DHT22;11481;53.694;9.910;2023-07-09T05:05:32;21.30;99.90
22629;DHT22;11481;53.694;9.910;2023-07-09T05:08:00;21.50;99.90
22629;DHT22;11481;53.694;9.910;2023-07-09T05:10:26;21.20;99.90
22629;DHT22;11481;53.694;9.910;2023-07-09T05:12:54;21.20;99.90
22629;DHT22;11481;53.694;9.910;2023-07-09T05:15:22;21.20;99.90
22629;DHT22;11481;53.694;9.910;2023-07-09T05:17:50;21.30;99.90
22629;DHT22;11481;53.694;9.910;2023-07-09T05:20:17;21.30;99.90
22629;DHT22;11481;53.694;9.910;2023-07-09T05:22:44;21.30;99.90
22629;DHT22;11481;53.694;9.910;2023-07-09T05:25:10;21.30;99.90
22629;DHT22;11481;53.694;9.910;2023-07-09T05:27:39;21.40;99.90
22629;DHT22;11481;53.694;9.910;2023-07-09T05:30:06;21.40;99.90
22629;DHT22;11481;53.694;9.910;2023-07-09T05:32:33;21.40;99.90
22629;DHT22;11481;53.694;9.910;2023-07-09T05:35:00;21.50;99.90
22629;DHT22;11481;53.694;9.910;2023-07-09T05:37:27;21.50;99.90
22629;DHT22;11481;53.694;9.910;2023-07-09T05:39:55;21.50;99.90
22629;DHT22;11481;53.694;9.910;2023-07-09T05:42:21;21.60;99.90
22629;DHT22;11481;53.694;9.910;2023-07-09T05:44:48;21.60;99.90
22629;DHT22;11481;53.694;9.910;2023-07-09T05:47:15;21.70;99.90
22629;DHT22;11481;53.694;9.910;2023-07-09T05:49:42;21.80;99.90
22629;DHT22;11481;53.694;9.910;2023-07-09T05:52:10;21.80;99.90
22629;DHT22;11481;53.694;9.910;2023-07-09T05:54:37;21.80;99.90
22629;DHT22;11481;53.694;9.910;2023-07-09T05:57:04;21.90;99.90
22629;DHT22;11481;53.694;9.910;2023-07-09T05:59:31;21.90;99.90
22629;DHT22;11481;53.694;9.910;2023-07-09T06:02:18;22.00;99.90
22629;DHT22;11481;53.694;9.910;2023-07-09T06:04:45;22.10;99.90
22629;DHT22;11481;53.694;9.910;2023-07-09T06:07:13;22.20;99.90
22629;DHT22;11481;53.694;9.910;2023-07-09T06:09:40;22.30;99.90
22629;DHT22;11481;53.694;9.910;2023-07-09T06:12:08;22.40;99.90
22629;DHT22;11481;53.694;9.910;2023-07-09T06:14:35;22.40;99.90
22629;DHT22;11481;53.694;9.910;2023-07-09T06:17:02;22.50;99.90
22629;DHT22;11481;53.694;9.910;2023-07-09T06:19:29;22.50;99.90
22629;DHT22;11481;53.694;9.910;2023-07-09T06:21:56;22.70;99.90
22629;DHT22;11481;53.694;9.910;2023-07-09T06:24:24;22.70;99.90
22629;DHT22;11481;53.694;9.910;2023-07-09T06:26:51;22.70;99.90
22629;DHT22;11481;53.694;9.910;2023-07-09T06:29:18;22.70;99.90
22629;DHT22;11481;53.694;9.910;2023-07-09T06:31:45;23.00;99.90
22629;DHT22;11481;53.694;9.910;2023-07-09T06:34:14;22.90;99.90
22629;DHT22;11481;53.694;9.910;2023-07-09T06:36:41;23.00;99.90
22629;DHT22;11481;53.694;9.910;2023-07-09T06:39:10;23.10;99.90
22629;DHT22;11481;53.694;9.910;2023-07-09T06:41:37;23.20;99.90
22629;DHT22;11481;53.694;9.910;2023-07-09T06:44:06;23.20;99.90
22629;DHT22;11481;53.694;9.910;2023-07-09T06:46:33;23.30;99.90
22629;DHT22;11481;53.694;9.910;2023-07-09T06:49:01;23.40;99.90
22629;DHT22;11481;53.694;9.910;2023-07-09T06:51:34;23.50;99.90
22629;DHT22;11481;53.694;9.910;2023-07-09T06:54:01;23.50;99.90
22629;DHT22;11481;53.694;9.910;2023-07-09T06:56:28;23.60;99.90
22629;DHT22;11481;53.694;9.910;2023-07-09T06:58:55;23.60;99.90
22629;DHT22;11481;53.694;9.910;2023-07-09T07:01:22;23.90;99.90
22629;DHT22;11481;53.694;9.910;2023-07-09T07:03:49;23.80;99.90
22629;DHT22;11481;53.694;9.910;2023-07-09T07:06:16;24.00;99.90
22629;DHT22;11481;53.694;9.910;2023-07-09T07:08:43;24.00;99.90
22629;DHT22;11481;53.694;9.910;2023-07-09T07:11:09;24.10;99.90
22629;DHT22;11481;53.694;9.910;2023-07-09T07:13:40;24.10;99.90
22629;DHT22;11481;53.694;9.910;2023-07-09T07:16:11;24.20;99.90
22629;DHT22;11481;53.694;9.910;2023-07-09T07:18:39;24.30;99.90
22629;DHT22;11481;53.694;9.910;2023-07-09T07:21:05;24.40;99.90
22629;DHT22;11481;53.694;9.910;2023-07-09T07:23:32;24.50;99.90
22629;DHT22;11481;53.694;9.910;2023-07-09T07:26:02;24.70;99.90
22629;DHT22;11481;53.694;9.910;2023-07-09T07:28:30;24.80;99.90
22629;DHT22;11481;53.694;9.910;2023-07-09T07:30:59;24.80;99.90
22629;DHT22;11481;53.694;9.910;2023-07-09T07:33:26;24.80;99.90
22629;DHT22;11481;53.694;9.910;2023-07-09T07:35:53;24.90;99.90
22629;DHT22;11481;53.694;9.910;2023-07-09T07:38:39;25.00;99.90
22629;DHT22;11481;53.694;9.910;2023-07-09T07:41:07;25.20;99.90
22629;DHT22;11481;53.694;9.910;2023-07-09T07:43:34;25.20;99.90
22629;DHT22;11481;53.694;9.910;2023-07-09T07:46:00;25.20;99.90
22629;DHT22;11481;53.694;9.910;2023-07-09T07:48:28;25.30;99.90
22629;DHT22;11481;53.694;9.910;2023-07-09T07:51:02;25.50;99.90
22629;DHT22;11481;53.694;9.910;2023-07-09T07:53:30;25.40;99.90
22629;DHT22;11481;53.694;9.910;2023-07-09T07:55:58;25.50;99.90
22629;DHT22;11481;53.694;9.910;2023-07-09T07:58:25;25.50;99.90
22629;DHT22;11481;53.694;9.910;2023-07-09T08:00:55;25.60;99.90
22629;DHT22;11481;53.694;9.910;2023-07-09T08:03:23;25.70;99.90
22629;DHT22;11481;53.694;9.910;2023-07-09T08:05:51;25.80;99.90
22629;DHT22;11481;53.694;9.910;2023-07-09T08:08:18;25.90;99.90
22629;DHT22;11481;53.694;9.910;2023-07-09T08:10:44;25.80;99.90
22629;DHT22;11481;53.694;9.910;2023-07-09T08:13:11;26.00;99.90
22629;DHT22;11481;53.694;9.910;2023-07-09T08:15:38;26.10;99.90
22629;DHT22;11481;53.694;9.910;2023-07-09T08:18:04;26.30;99.90
22629;DHT22;11481;53.694;9.910;2023-07-09T08:20:31;26.40;99.90
22629;DHT22;11481;53.694;9.910;2023-07-09T08:22:59;26.50;99.90
22629;DHT22;11481;53.694;9.910;2023-07-09T08:25:26;26.60;99.90
22629;DHT22;11481;53.694;9.910;2023-07-09T08:27:53;26.60;99.90
22629;DHT22;11481;53.694;9.910;2023-07-09T08:30:19;26.70;99.90
22629;DHT22;11481;53.694;9.910;2023-07-09T08:32:46;26.80;99.90
22629;DHT22;11481;53.694;9.910;2023-07-09T08:35:13;26.80;99.90
22629;DHT22;11481;53.694;9.910;2023-07-09T08:38:01;26.80;99.90
22629;DHT22;11481;53.694;9.910;2023-07-09T08:40:28;26.90;99.90
22629;DHT22;11481;53.694;9.910;2023-07-09T08:43:06;27.00;99.90
22629;DHT22;11481;53.694;9.910;2023-07-09T08:45:53;27.20;99.90
22629;DHT22;11481;53.694;9.910;2023-07-09T08:48:31;27.30;99.90
22629;DHT22;11481;53.694;9.910;2023-07-09T08:51:04;27.40;99.90
22629;DHT22;11481;53.694;9.910;2023-07-09T08:53:42;27.50;99.90
22629;DHT22;11481;53.694;9.910;2023-07-09T08:56:13;27.60;99.90
22629;DHT22;11481;53.694;9.910;2023-07-09T08:58:42;27.70;99.90
22629;DHT22;11481;53.694;9.910;2023-07-09T09:01:38;27.80;99.90
22629;DHT22;11481;53.694;9.910;2023-07-09T09:04:22;27.90;99.90
22629;DHT22;11481;53.694;9.910;2023-07-09T09:07:26;28.10;99.90
22629;DHT22;11481;53.694;9.910;2023-07-09T09:10:01;28.20;99.90
22629;DHT22;11481;53.694;9.910;2023-07-09T09:12:38;28.30;99.90
22629;DHT22;11481;53.694;9.910;2023-07-09T09:15:17;28.40;99.90
22629;DHT22;11481;53.694;9.910;2023-07-09T09:17:45;28.40;99.90
22629;DHT22;11481;53.694;9.910;2023-07-09T09:20:20;28.50;99.90
22629;DHT22;11481;53.694;9.910;2023-07-09T09:23:13;28.60;99.90
22629;DHT22;11481;53.694;9.910;2023-07-09T09:25:45;28.60;99.90
22629;DHT22;11481;53.694;9.910;2023-07-09T09:28:23;28.90;99.90
22629;DHT22;11481;53.694;9.910;2023-07-09T09:30:51;28.90;99.90
22629;DHT22;11481;53.694;9.910;2023-07-09T09:33:18;28.90;99.90
22629;DHT22;11481;53.694;9.910;2023-07-09T09:35:45;28.90;99.90
22629;DHT22;11481;53.694;9.910;2023-07-09T09:38:21;29.10;99.90
22629;DHT22;11481;53.694;9.910;2023-07-09T09:40:48;29.20;99.90
22629;DHT22;11481;53.694;9.910;2023-07-09T09:43:18;29.30;99.90
22629;DHT22;11481;53.694;9.910;2023-07-09T09:45:48;29.40;99.90
22629;DHT22;11481;53.694;9.910;2023-07-09T09:48:25;29.40;99.90
22629;DHT22;11481;53.694;9.910;2023-07-09T09:50:53;29.50;99.90
22629;DHT22;11481;53.694;9.910;2023-07-09T09:53:23;29.60;99.90
22629;DHT22;11481;53.694;9.910;2023-07-09T09:55:54;29.90;99.90
22629;DHT22;11481;53.694;9.910;2023-07-09T09:58:29;29.90;99.90
22629;DHT22;11481;53.694;9.910;2023-07-09T10:00:57;29.80;99.90
22629;DHT22;11481;53.694;9.910;2023-07-09T10:03:36;29.90;99.90
22629;DHT22;11481;53.694;9.910;2023-07-09T10:06:12;29.90;99.90
22629;DHT22;11481;53.694;9.910;2023-07-09T10:08:46;29.90;99.90
22629;DHT22;11481;53.694;9.910;2023-07-09T10:11:24;30.10;99.90
22629;DHT22;11481;53.694;9.910;2023-07-09T10:13:56;30.20;99.90
22629;DHT22;11481;53.694;9.910;2023-07-09T10:16:36;30.40;99.90
22629;DHT22;11481;53.694;9.910;2023-07-09T10:19:24;30.40;99.90
22629;DHT22;11481;53.694;9.910;2023-07-09T10:22:02;30.50;99.90
22629;DHT22;11481;53.694;9.910;2023-07-09T10:29:46;30.70;99.90
22629;DHT22;11481;53.694;9.910;2023-07-09T10:32:49;30.90;99.90
22629;DHT22;11481;53.694;9.910;2023-07-09T10:35:38;30.90;99.90
22629;DHT22;11481;53.694;9.910;2023-07-09T10:38:22;30.90;99.90
22629;DHT22;11481;53.694;9.910;2023-07-09T10:40:56;31.00;99.90
22629;DHT22;11481;53.694;9.910;2023-07-09T10:43:52;31.20;99.90
22629;DHT22;11481;53.694;9.910;2023-07-09T10:46:24;31.30;99.90
22629;DHT22;11481;53.694;9.910;2023-07-09T10:48:54;31.30;99.90
22629;DHT22;11481;53.694;9.910;2023-07-09T10:51:32;31.50;99.90
22629;DHT22;11481;53.694;9.910;2023-07-09T10:56:39;31.60;99.90
22629;DHT22;11481;53.694;9.910;2023-07-09T10:59:21;31.80;99.90
22629;DHT22;11481;53.694;9.910;2023-07-09T11:04:44;31.80;99.90
22629;DHT22;11481;53.694;9.910;2023-07-09T11:07:15;31.90;99.90
22629;DHT22;11481;53.694;9.910;2023-07-09T11:09:44;32.00;99.90
22629;DHT22;11481;53.694;9.910;2023-07-09T11:12:17;32.10;99.90
22629;DHT22;11481;53.694;9.910;2023-07-09T11:14:57;32.20;99.90
22629;DHT22;11481;53.694;9.910;2023-07-09T11:17:27;32.20;99.90
22629;DHT22;11481;53.694;9.910;2023-07-09T11:19:56;32.40;99.90
22629;DHT22;11481;53.694;9.910;2023-07-09T11:22:40;32.40;99.90
22629;DHT22;11481;53.694;9.910;2023-07-09T11:25:13;32.40;99.90
22629;DHT22;11481;53.694;9.910;2023-07-09T11:27:54;32.50;99.90
22629;DHT22;11481;53.694;9.910;2023-07-09T11:30:29;32.70;99.90
22629;DHT22;11481;53.694;9.910;2023-07-09T11:33:02;32.70;99.90
22629;DHT22;11481;53.694;9.910;2023-07-09T11:35:51;32.80;99.90
22629;DHT22;11481;53.694;9.910;2023-07-09T11:38:19;32.90;99.90
22629;DHT22;11481;53.694;9.910;2023-07-09T11:40:48;33.00;99.90
22629;DHT22;11481;53.694;9.910;2023-07-09T11:43:31;33.00;99.90
22629;DHT22;11481;53.694;9.910;2023-07-09T11:46:16;33.10;99.90
22629;DHT22;11481;53.694;9.910;2023-07-09T11:48:45;33.30;99.90
22629;DHT22;11481;53.694;9.910;2023-07-09T11:51:22;33.40;99.90
22629;DHT22;11481;53.694;9.910;2023-07-09T11:53:53;33.50;99.90
22629;DHT22;11481;53.694;9.910;2023-07-09T11:56:22;33.60;99.90
22629;DHT22;11481;53.694;9.910;2023-07-09T11:58:56;33.70;99.90
22629;DHT22;11481;53.694;9.910;2023-07-09T12:01:36;33.80;99.90
22629;DHT22;11481;53.694;9.910;2023-07-09T12:04:06;33.90;99.90
22629;DHT22;11481;53.694;9.910;2023-07-09T12:06:33;33.90;99.90
22629;DHT22;11481;53.694;9.910;2023-07-09T12:09:00;34.00;99.90
22629;DHT22;11481;53.694;9.910;2023-07-09T12:11:31;34.00;99.90
22629;DHT22;11481;53.694;9.910;2023-07-09T12:14:20;34.00;99.90
22629;DHT22;11481;53.694;9.910;2023-07-09T12:16:49;33.90;99.90
22629;DHT22;11481;53.694;9.910;2023-07-09T12:19:22;34.00;99.90
22629;DHT22;11481;53.694;9.910;2023-07-09T12:21:56;33.90;99.90
22629;DHT22;11481;53.694;9.910;2023-07-09T12:24:28;33.90;99.90
22629;DHT22;11481;53.694;9.910;2023-07-09T12:26:57;34.10;99.90
22629;DHT22;11481;53.694;9.910;2023-07-09T12:29:30;34.30;99.90
22629;DHT22;11481;53.694;9.910;2023-07-09T12:31:57;34.30;99.90
22629;DHT22;11481;53.694;9.910;2023-07-09T12:34:24;34.30;99.90
22629;DHT22;11481;53.694;9.910;2023-07-09T12:36:53;34.20;99.90
22629;DHT22;11481;53.694;9.910;2023-07-09T12:39:24;34.20;99.90
22629;DHT22;11481;53.694;9.910;2023-07-09T12:41:59;34.20;99.90
22629;DHT22;11481;53.694;9.910;2023-07-09T12:44:35;34.40;99.90
22629;DHT22;11481;53.694;9.910;2023-07-09T12:47:02;34.50;99.90
22629;DHT22;11481;53.694;9.910;2023-07-09T12:49:36;34.60;99.90
22629;DHT22;11481;53.694;9.910;2023-07-09T12:52:18;34.90;99.90
22629;DHT22;11481;53.694;9.910;2023-07-09T12:54:59;35.00;99.90
22629;DHT22;11481;53.694;9.910;2023-07-09T12:57:27;34.90;99.90
22629;DHT22;11481;53.694;9.910;2023-07-09T12:59:55;35.00;99.90
22629;DHT22;11481;53.694;9.910;2023-07-09T13:02:25;35.20;99.90
22629;DHT22;11481;53.694;9.910;2023-07-09T13:05:16;35.40;99.90
22629;DHT22;11481;53.694;9.910;2023-07-09T13:07:49;35.40;99.90
22629;DHT22;11481;53.694;9.910;2023-07-09T13:10:23;35.50;99.90
22629;DHT22;11481;53.694;9.910;2023-07-09T13:12:55;35.60;99.90
22629;DHT22;11481;53.694;9.910;2023-07-09T13:15:28;35.60;99.90
22629;DHT22;11481;53.694;9.910;2023-07-09T13:18:04;35.40;99.90
22629;DHT22;11481;53.694;9.910;2023-07-09T13:20:33;35.50;99.90
22629;DHT22;11481;53.694;9.910;2023-07-09T13:23:04;35.60;99.90
22629;DHT22;11481;53.694;9.910;2023-07-09T13:25:34;35.70;99.90
22629;DHT22;11481;53.694;9.910;2023-07-09T13:28:18;35.80;99.90
22629;DHT22;11481;53.694;9.910;2023-07-09T13:30:48;35.90;99.90
22629;DHT22;11481;53.694;9.910;2023-07-09T13:33:17;36.00;99.70
22629;DHT22;11481;53.694;9.910;2023-07-09T13:35:48;35.90;99.90
22629;DHT22;11481;53.694;9.910;2023-07-09T13:38:18;35.90;99.40
22629;DHT22;11481;53.694;9.910;2023-07-09T13:40:48;35.90;98.90
22629;DHT22;11481;53.694;9.910;2023-07-09T13:43:26;36.00;99.50
22629;DHT22;11481;53.694;9.910;2023-07-09T13:45:54;36.10;98.50
22629;DHT22;11481;53.694;9.910;2023-07-09T13:48:26;36.10;97.30
22629;DHT22;11481;53.694;9.910;2023-07-09T13:50:54;36.20;96.80
22629;DHT22;11481;53.694;9.910;2023-07-09T13:53:32;36.50;96.50
22629;DHT22;11481;53.694;9.910;2023-07-09T13:55:59;36.50;95.80
22629;DHT22;11481;53.694;9.910;2023-07-09T13:58:27;36.50;95.60
22629;DHT22;11481;53.694;9.910;2023-07-09T14:00:59;36.60;96.90
22629;DHT22;11481;53.694;9.910;2023-07-09T14:03:33;36.60;95.60
22629;DHT22;11481;53.694;9.910;2023-07-09T14:06:00;36.80;95.20
22629;DHT22;11481;53.694;9.910;2023-07-09T14:08:27;37.00;96.00
22629;DHT22;11481;53.694;9.910;2023-07-09T14:10:53;37.00;95.30
22629;DHT22;11481;53.694;9.910;2023-07-09T14:13:24;37.20;94.70
22629;DHT22;11481;53.694;9.910;2023-07-09T14:15:52;37.10;94.30
22629;DHT22;11481;53.694;9.910;2023-07-09T14:18:22;37.10;95.30
22629;DHT22;11481;53.694;9.910;2023-07-09T14:20:50;37.10;93.90
22629;DHT22;11481;53.694;9.910;2023-07-09T14:23:18;37.00;93.60
22629;DHT22;11481;53.694;9.910;2023-07-09T14:25:45;37.10;93.90
22629;DHT22;11481;53.694;9.910;2023-07-09T14:28:18;37.20;95.00
22629;DHT22;11481;53.694;9.910;2023-07-09T14:30:48;37.40;93.00
22629;DHT22;11481;53.694;9.910;2023-07-09T14:33:17;37.20;92.70
22629;DHT22;11481;53.694;9.910;2023-07-09T14:35:45;37.20;93.10
22629;DHT22;11481;53.694;9.910;2023-07-09T14:38:16;37.30;93.60
22629;DHT22;11481;53.694;9.910;2023-07-09T14:40:45;37.30;94.00
22629;DHT22;11481;53.694;9.910;2023-07-09T14:43:12;37.50;92.90
22629;DHT22;11481;53.694;9.910;2023-07-09T14:45:40;37.70;92.60
22629;DHT22;11481;53.694;9.910;2023-07-09T14:48:15;37.70;92.40
22629;DHT22;11481;53.694;9.910;2023-07-09T14:50:43;37.80;92.00
22629;DHT22;11481;53.694;9.910;2023-07-09T14:53:26;37.90;92.10
22629;DHT22;11481;53.694;9.910;2023-07-09T14:55:54;38.00;91.10
22629;DHT22;11481;53.694;9.910;2023-07-09T14:58:24;38.20;91.90
22629;DHT22;11481;53.694;9.910;2023-07-09T15:00:53;38.10;91.30
22629;DHT22;11481;53.694;9.910;2023-07-09T15:03:24;38.30;92.60
22629;DHT22;11481;53.694;9.910;2023-07-09T15:05:52;38.50;92.00
22629;DHT22;11481;53.694;9.910;2023-07-09T15:08:22;38.60;90.40
22629;DHT22;11481;53.694;9.910;2023-07-09T15:10:53;38.60;91.10
22629;DHT22;11481;53.694;9.910;2023-07-09T15:13:29;38.60;90.60
22629;DHT22;11481;53.694;9.910;2023-07-09T15:16:00;38.80;89.70
22629;DHT22;11481;53.694;9.910;2023-07-09T15:18:27;38.90;90.10
22629;DHT22;11481;53.694;9.910;2023-07-09T15:21:00;38.90;90.10
22629;DHT22;11481;53.694;9.910;2023-07-09T15:23:29;39.00;89.70
22629;DHT22;11481;53.694;9.910;2023-07-09T15:25:56;39.10;90.20
22629;DHT22;11481;53.694;9.910;2023-07-09T15:28:24;39.30;89.80
22629;DHT22;11481;53.694;9.910;2023-07-09T15:30:53;39.30;88.30
22629;DHT22;11481;53.694;9.910;2023-07-09T15:33:20;39.40;88.30
22629;DHT22;11481;53.694;9.910;2023-07-09T15:35:48;39.40;88.40
22629;DHT22;11481;53.694;9.910;2023-07-09T15:38:21;39.50;88.40
22629;DHT22;11481;53.694;9.910;2023-07-09T15:40:49;39.60;87.20
22629;DHT22;11481;53.694;9.910;2023-07-09T15:43:17;39.50;86.90
22629;DHT22;11481;53.694;9.910;2023-07-09T15:45:46;39.40;84.80
22629;DHT22;11481;53.694;9.910;2023-07-09T15:48:32;39.30;84.30
22629;DHT22;11481;53.694;9.910;2023-07-09T15:51:04;39.10;84.50
22629;DHT22;11481;53.694;9.910;2023-07-09T15:53:33;39.20;85.50
22629;DHT22;11481;53.694;9.910;2023-07-09T15:56:03;39.20;85.50
22629;DHT22;11481;53.694;9.910;2023-07-09T15:58:44;39.10;84.10
22629;DHT22;11481;53.694;9.910;2023-07-09T16:01:14;38.90;86.40
22629;DHT22;11481;53.694;9.910;2023-07-09T16:03:54;38.90;85.10